sensor_id;sensor_type;location;lat;lon;timestamp;P1;durP1;ratioP1;P2;durP2;ratioP2
33367;SDS011;19724;51.114;13.906;2023-02-13T00:01:56;66.07;;;23.13;;
33367;SDS011;19724;51.114;13.906;2023-02-13T00:04:22;69.20;;;24.08;;
33367;SDS011;19724;51.114;13.906;2023-02-13T00:06:47;66.30;;;25.40;;
33367;SDS011;19724;51.114;13.906;2023-02-13T00:09:13;75.68;;;28.05;;
33367;SDS011;19724;51.114;13.906;2023-02-13T00:11:39;57.17;;;21.75;;
33367;SDS011;19724;51.114;13.906;2023-02-13T00:14:04;61.08;;;21.60;;
33367;SDS011;19724;51.114;13.906;2023-02-13T00:16:30;57.63;;;23.80;;
33367;SDS011;19724;51.114;13.906;2023-02-13T00:18:55;59.03;;;20.88;;
33367;SDS011;19724;51.114;13.906;2023-02-13T00:21:21;67.85;;;20.27;;
33367;SDS011;19724;51.114;13.906;2023-02-13T00:23:46;67.13;;;26.00;;
33367;SDS011;19724;51.114;13.906;2023-02-13T00:26:13;81.78;;;22.55;;
33367;SDS011;19724;51.114;13.906;2023-02-13T00:28:39;83.07;;;28.45;;
33367;SDS011;19724;51.114;13.906;2023-02-13T00:31:06;67.38;;;24.27;;
33367;SDS011;19724;51.114;13.906;2023-02-13T00:33:33;91.93;;;24.80;;
33367;SDS011;19724;51.114;13.906;2023-02-13T00:36:06;84.32;;;34.45;;
33367;SDS011;19724;51.114;13.906;2023-02-13T00:38:37;144.10;;;31.17;;
33367;SDS011;19724;51.114;13.906;2023-02-13T00:41:03;97.35;;;33.13;;
33367;SDS011;19724;51.114;13.906;2023-02-13T00:43:29;114.78;;;35.22;;
33367;SDS011;19724;51.114;13.906;2023-02-13T00:45:56;115.90;;;36.40;;
33367;SDS011;19724;51.114;13.906;2023-02-13T00:48:25;118.60;;;35.45;;
33367;SDS011;19724;51.114;13.906;2023-02-13T00:50:51;119.88;;;34.05;;
33367;SDS011;19724;51.114;13.906;2023-02-13T00:53:17;115.45;;;39.40;;
33367;SDS011;19724;51.114;13.906;2023-02-13T00:55:43;121.07;;;38.70;;
33367;SDS011;19724;51.114;13.906;2023-02-13T00:58:09;108.32;;;35.50;;
33367;SDS011;19724;51.114;13.906;2023-02-13T01:00:35;120.78;;;36.67;;
33367;SDS011;19724;51.114;13.906;2023-02-13T01:03:00;144.60;;;36.53;;
33367;SDS011;19724;51.114;13.906;2023-02-13T01:05:26;146.52;;;37.60;;
33367;SDS011;19724;51.114;13.906;2023-02-13T01:07:52;141.02;;;40.42;;
33367;SDS011;19724;51.114;13.906;2023-02-13T01:10:18;143.15;;;41.72;;
33367;SDS011;19724;51.114;13.906;2023-02-13T01:12:44;152.98;;;42.45;;
33367;SDS011;19724;51.114;13.906;2023-02-13T01:15:09;130.32;;;44.70;;
33367;SDS011;19724;51.114;13.906;2023-02-13T01:17:35;135.55;;;47.17;;
33367;SDS011;19724;51.114;13.906;2023-02-13T01:20:03;137.32;;;44.28;;
33367;SDS011;19724;51.114;13.906;2023-02-13T01:22:30;176.63;;;46.70;;
33367;SDS011;19724;51.114;13.906;2023-02-13T01:24:55;184.90;;;48.40;;
33367;SDS011;19724;51.114;13.906;2023-02-13T01:27:21;147.60;;;49.33;;
33367;SDS011;19724;51.114;13.906;2023-02-13T01:29:47;134.35;;;49.47;;
33367;SDS011;19724;51.114;13.906;2023-02-13T01:32:12;163.73;;;53.28;;
33367;SDS011;19724;51.114;13.906;2023-02-13T01:34:38;222.63;;;55.00;;
33367;SDS011;19724;51.114;13.906;2023-02-13T01:37:04;161.75;;;55.97;;
33367;SDS011;19724;51.114;13.906;2023-02-13T01:39:29;171.43;;;58.08;;
33367;SDS011;19724;51.114;13.906;2023-02-13T01:41:55;204.93;;;59.55;;
33367;SDS011;19724;51.114;13.906;2023-02-13T01:47:09;224.15;;;62.15;;
33367;SDS011;19724;51.114;13.906;2023-02-13T01:49:37;197.80;;;64.50;;
33367;SDS011;19724;51.114;13.906;2023-02-13T01:52:04;217.18;;;66.40;;
33367;SDS011;19724;51.114;13.906;2023-02-13T01:54:30;245.57;;;64.35;;
33367;SDS011;19724;51.114;13.906;2023-02-13T01:57:05;210.82;;;65.78;;
33367;SDS011;19724;51.114;13.906;2023-02-13T01:59:40;231.45;;;67.82;;
33367;SDS011;19724;51.114;13.906;2023-02-13T02:02:13;226.85;;;68.22;;
33367;SDS011;19724;51.114;13.906;2023-02-13T02:04:39;215.93;;;68.03;;
33367;SDS011;19724;51.114;13.906;2023-02-13T02:07:08;245.05;;;74.28;;
33367;SDS011;19724;51.114;13.906;2023-02-13T02:09:41;190.82;;;66.43;;
33367;SDS011;19724;51.114;13.906;2023-02-13T02:12:09;213.82;;;70.90;;
33367;SDS011;19724;51.114;13.906;2023-02-13T02:14:51;271.42;;;70.28;;
33367;SDS011;19724;51.114;13.906;2023-02-13T02:17:20;307.65;;;62.95;;
33367;SDS011;19724;51.114;13.906;2023-02-13T02:34:36;254.43;;;71.88;;
33367;SDS011;19724;51.114;13.906;2023-02-13T02:37:34;298.17;;;65.70;;
33367;SDS011;19724;51.114;13.906;2023-02-13T02:43:13;195.77;;;64.72;;
33367;SDS011;19724;51.114;13.906;2023-02-13T02:48:26;325.42;;;69.82;;
33367;SDS011;19724;51.114;13.906;2023-02-13T02:51:28;287.52;;;73.28;;
33367;SDS011;19724;51.114;13.906;2023-02-13T02:54:05;256.50;;;74.63;;
33367;SDS011;19724;51.114;13.906;2023-02-13T02:56:57;249.65;;;69.78;;
33367;SDS011;19724;51.114;13.906;2023-02-13T02:59:29;308.17;;;65.90;;
33367;SDS011;19724;51.114;13.906;2023-02-13T03:02:16;293.23;;;71.40;;
33367;SDS011;19724;51.114;13.906;2023-02-13T03:05:02;243.98;;;68.28;;
33367;SDS011;19724;51.114;13.906;2023-02-13T03:07:47;254.00;;;66.35;;
33367;SDS011;19724;51.114;13.906;2023-02-13T03:10:25;196.55;;;59.30;;
33367;SDS011;19724;51.114;13.906;2023-02-13T03:13:14;290.10;;;68.45;;
33367;SDS011;19724;51.114;13.906;2023-02-13T03:15:53;318.35;;;66.22;;
33367;SDS011;19724;51.114;13.906;2023-02-13T03:18:45;285.60;;;73.47;;
33367;SDS011;19724;51.114;13.906;2023-02-13T03:21:44;319.90;;;66.85;;
33367;SDS011;19724;51.114;13.906;2023-02-13T03:24:45;281.35;;;75.85;;
33367;SDS011;19724;51.114;13.906;2023-02-13T03:27:29;253.63;;;67.32;;
33367;SDS011;19724;51.114;13.906;2023-02-13T03:30:33;295.13;;;64.85;;
33367;SDS011;19724;51.114;13.906;2023-02-13T03:33:35;230.93;;;65.18;;
33367;SDS011;19724;51.114;13.906;2023-02-13T03:41:49;272.60;;;73.88;;
33367;SDS011;19724;51.114;13.906;2023-02-13T03:44:24;157.65;;;54.00;;
33367;SDS011;19724;51.114;13.906;2023-02-13T03:46:56;220.38;;;67.97;;
33367;SDS011;19724;51.114;13.906;2023-02-13T03:49:25;181.88;;;60.03;;
33367;SDS011;19724;51.114;13.906;2023-02-13T03:52:17;233.00;;;62.33;;
33367;SDS011;19724;51.114;13.906;2023-02-13T03:55:04;204.38;;;61.65;;
33367;SDS011;19724;51.114;13.906;2023-02-13T03:58:03;226.15;;;54.72;;
33367;SDS011;19724;51.114;13.906;2023-02-13T04:00:53;236.70;;;62.95;;
33367;SDS011;19724;51.114;13.906;2023-02-13T04:03:27;242.35;;;54.65;;
33367;SDS011;19724;51.114;13.906;2023-02-13T04:06:03;194.40;;;54.83;;
33367;SDS011;19724;51.114;13.906;2023-02-13T04:08:33;243.73;;;64.95;;
33367;SDS011;19724;51.114;13.906;2023-02-13T04:11:44;204.93;;;56.35;;
33367;SDS011;19724;51.114;13.906;2023-02-13T04:13:59;223.25;;;58.25;;
33367;SDS011;19724;51.114;13.906;2023-02-13T04:16:29;240.23;;;62.17;;
33367;SDS011;19724;51.114;13.906;2023-02-13T04:19:00;181.32;;;55.33;;
33367;SDS011;19724;51.114;13.906;2023-02-13T04:21:26;201.50;;;59.08;;
33367;SDS011;19724;51.114;13.906;2023-02-13T04:23:55;154.98;;;48.38;;
33367;SDS011;19724;51.114;13.906;2023-02-13T04:26:21;176.63;;;51.20;;
33367;SDS011;19724;51.114;13.906;2023-02-13T04:28:48;160.52;;;49.80;;
33367;SDS011;19724;51.114;13.906;2023-02-13T04:31:13;225.30;;;52.33;;
33367;SDS011;19724;51.114;13.906;2023-02-13T04:33:39;187.68;;;51.10;;
33367;SDS011;19724;51.114;13.906;2023-02-13T04:36:04;171.68;;;52.88;;
33367;SDS011;19724;51.114;13.906;2023-02-13T04:38:30;201.95;;;48.00;;
33367;SDS011;19724;51.114;13.906;2023-02-13T04:40:55;169.70;;;46.65;;
33367;SDS011;19724;51.114;13.906;2023-02-13T04:43:21;208.55;;;42.97;;
33367;SDS011;19724;51.114;13.906;2023-02-13T04:45:50;157.27;;;47.97;;
33367;SDS011;19724;51.114;13.906;2023-02-13T04:48:15;161.73;;;44.20;;
33367;SDS011;19724;51.114;13.906;2023-02-13T04:50:41;151.30;;;50.22;;
33367;SDS011;19724;51.114;13.906;2023-02-13T04:53:07;127.70;;;44.50;;
33367;SDS011;19724;51.114;13.906;2023-02-13T04:55:32;170.85;;;43.08;;
33367;SDS011;19724;51.114;13.906;2023-02-13T04:57:58;140.38;;;43.13;;
33367;SDS011;19724;51.114;13.906;2023-02-13T05:00:24;130.00;;;40.30;;
33367;SDS011;19724;51.114;13.906;2023-02-13T05:02:52;115.43;;;35.38;;
33367;SDS011;19724;51.114;13.906;2023-02-13T05:05:18;141.15;;;41.53;;
33367;SDS011;19724;51.114;13.906;2023-02-13T05:07:44;161.30;;;43.58;;
33367;SDS011;19724;51.114;13.906;2023-02-13T05:10:10;110.85;;;42.65;;
33367;SDS011;19724;51.114;13.906;2023-02-13T05:12:36;101.75;;;37.65;;
33367;SDS011;19724;51.114;13.906;2023-02-13T05:15:02;117.05;;;41.28;;
33367;SDS011;19724;51.114;13.906;2023-02-13T05:17:28;113.90;;;35.30;;
33367;SDS011;19724;51.114;13.906;2023-02-13T05:19:54;92.93;;;36.50;;
33367;SDS011;19724;51.114;13.906;2023-02-13T05:22:19;102.13;;;38.60;;
33367;SDS011;19724;51.114;13.906;2023-02-13T05:25:04;126.03;;;30.95;;
33367;SDS011;19724;51.114;13.906;2023-02-13T05:27:29;101.20;;;36.35;;
33367;SDS011;19724;51.114;13.906;2023-02-13T05:29:55;105.28;;;32.33;;
33367;SDS011;19724;51.114;13.906;2023-02-13T05:32:20;90.70;;;31.98;;
33367;SDS011;19724;51.114;13.906;2023-02-13T05:34:46;106.30;;;33.20;;
33367;SDS011;19724;51.114;13.906;2023-02-13T05:37:11;88.15;;;31.90;;
33367;SDS011;19724;51.114;13.906;2023-02-13T05:39:37;74.25;;;28.92;;
33367;SDS011;19724;51.114;13.906;2023-02-13T05:42:02;83.20;;;27.52;;
33367;SDS011;19724;51.114;13.906;2023-02-13T05:44:31;58.50;;;27.98;;
33367;SDS011;19724;51.114;13.906;2023-02-13T05:46:56;71.13;;;27.92;;
33367;SDS011;19724;51.114;13.906;2023-02-13T05:49:22;94.57;;;27.40;;
33367;SDS011;19724;51.114;13.906;2023-02-13T05:51:48;56.25;;;25.42;;
33367;SDS011;19724;51.114;13.906;2023-02-13T05:54:16;68.85;;;27.00;;
33367;SDS011;19724;51.114;13.906;2023-02-13T05:56:41;69.25;;;25.73;;
33367;SDS011;19724;51.114;13.906;2023-02-13T05:59:07;58.88;;;24.10;;
33367;SDS011;19724;51.114;13.906;2023-02-13T06:01:32;56.10;;;24.33;;
33367;SDS011;19724;51.114;13.906;2023-02-13T06:03:58;70.78;;;29.45;;
33367;SDS011;19724;51.114;13.906;2023-02-13T06:06:23;60.53;;;26.98;;
33367;SDS011;19724;51.114;13.906;2023-02-13T06:08:49;73.90;;;26.00;;
33367;SDS011;19724;51.114;13.906;2023-02-13T06:11:15;57.47;;;25.48;;
33367;SDS011;19724;51.114;13.906;2023-02-13T06:13:41;62.85;;;27.73;;
33367;SDS011;19724;51.114;13.906;2023-02-13T06:16:07;68.65;;;26.17;;
33367;SDS011;19724;51.114;13.906;2023-02-13T06:18:33;80.75;;;28.90;;
33367;SDS011;19724;51.114;13.906;2023-02-13T06:20:59;65.47;;;27.58;;
33367;SDS011;19724;51.114;13.906;2023-02-13T06:23:24;79.63;;;27.58;;
33367;SDS011;19724;51.114;13.906;2023-02-13T06:25:50;66.47;;;28.77;;
33367;SDS011;19724;51.114;13.906;2023-02-13T06:28:15;53.75;;;24.98;;
33367;SDS011;19724;51.114;13.906;2023-02-13T06:30:41;71.78;;;26.80;;
33367;SDS011;19724;51.114;13.906;2023-02-13T06:33:06;73.70;;;28.60;;
33367;SDS011;19724;51.114;13.906;2023-02-13T06:35:32;84.50;;;28.48;;
33367;SDS011;19724;51.114;13.906;2023-02-13T06:37:57;69.60;;;27.92;;
33367;SDS011;19724;51.114;13.906;2023-02-13T06:40:23;77.75;;;25.10;;
33367;SDS011;19724;51.114;13.906;2023-02-13T06:42:48;67.22;;;26.38;;
33367;SDS011;19724;51.114;13.906;2023-02-13T06:45:14;94.15;;;30.13;;
33367;SDS011;19724;51.114;13.906;2023-02-13T06:47:40;76.15;;;27.92;;
33367;SDS011;19724;51.114;13.906;2023-02-13T06:50:06;62.50;;;27.80;;
33367;SDS011;19724;51.114;13.906;2023-02-13T06:52:32;61.72;;;25.20;;
33367;SDS011;19724;51.114;13.906;2023-02-13T06:54:59;70.72;;;26.50;;
33367;SDS011;19724;51.114;13.906;2023-02-13T06:57:25;74.50;;;27.02;;
33367;SDS011;19724;51.114;13.906;2023-02-13T06:59:51;75.22;;;27.40;;
33367;SDS011;19724;51.114;13.906;2023-02-13T07:02:18;87.47;;;29.92;;
33367;SDS011;19724;51.114;13.906;2023-02-13T07:04:43;86.95;;;31.58;;
33367;SDS011;19724;51.114;13.906;2023-02-13T07:07:12;72.20;;;28.65;;
33367;SDS011;19724;51.114;13.906;2023-02-13T07:09:37;82.43;;;31.95;;
33367;SDS011;19724;51.114;13.906;2023-02-13T07:12:03;95.53;;;31.95;;
33367;SDS011;19724;51.114;13.906;2023-02-13T07:14:29;93.78;;;32.08;;
33367;SDS011;19724;51.114;13.906;2023-02-13T07:16:55;73.13;;;28.35;;
33367;SDS011;19724;51.114;13.906;2023-02-13T07:19:21;79.10;;;28.10;;
33367;SDS011;19724;51.114;13.906;2023-02-13T07:21:47;99.57;;;25.92;;
33367;SDS011;19724;51.114;13.906;2023-02-13T07:24:12;87.13;;;28.52;;
33367;SDS011;19724;51.114;13.906;2023-02-13T07:26:45;72.95;;;28.25;;
33367;SDS011;19724;51.114;13.906;2023-02-13T07:29:14;78.68;;;28.92;;
33367;SDS011;19724;51.114;13.906;2023-02-13T07:31:42;79.95;;;26.40;;
33367;SDS011;19724;51.114;13.906;2023-02-13T07:34:07;85.82;;;30.63;;
33367;SDS011;19724;51.114;13.906;2023-02-13T07:36:33;88.13;;;30.33;;
33367;SDS011;19724;51.114;13.906;2023-02-13T07:38:58;106.05;;;27.35;;
33367;SDS011;19724;51.114;13.906;2023-02-13T07:41:24;97.28;;;30.20;;
33367;SDS011;19724;51.114;13.906;2023-02-13T07:43:50;83.82;;;30.65;;
33367;SDS011;19724;51.114;13.906;2023-02-13T07:46:16;103.10;;;34.95;;
33367;SDS011;19724;51.114;13.906;2023-02-13T07:48:42;105.30;;;38.55;;
33367;SDS011;19724;51.114;13.906;2023-02-13T07:51:08;95.53;;;32.55;;
33367;SDS011;19724;51.114;13.906;2023-02-13T07:53:35;89.68;;;36.90;;
33367;SDS011;19724;51.114;13.906;2023-02-13T07:56:07;108.55;;;35.85;;
33367;SDS011;19724;51.114;13.906;2023-02-13T07:58:34;118.45;;;38.00;;
33367;SDS011;19724;51.114;13.906;2023-02-13T08:01:12;151.30;;;40.75;;
33367;SDS011;19724;51.114;13.906;2023-02-13T08:03:40;128.00;;;39.15;;
33367;SDS011;19724;51.114;13.906;2023-02-13T08:06:06;125.57;;;38.38;;
33367;SDS011;19724;51.114;13.906;2023-02-13T08:08:32;132.65;;;40.95;;
33367;SDS011;19724;51.114;13.906;2023-02-13T08:11:05;134.27;;;39.92;;
33367;SDS011;19724;51.114;13.906;2023-02-13T08:13:55;143.13;;;46.15;;
33367;SDS011;19724;51.114;13.906;2023-02-13T08:16:21;132.20;;;45.65;;
33367;SDS011;19724;51.114;13.906;2023-02-13T08:18:46;159.38;;;42.33;;
33367;SDS011;19724;51.114;13.906;2023-02-13T08:21:12;169.38;;;45.00;;
33367;SDS011;19724;51.114;13.906;2023-02-13T08:23:39;153.63;;;49.33;;
33367;SDS011;19724;51.114;13.906;2023-02-13T08:26:04;155.73;;;50.97;;
33367;SDS011;19724;51.114;13.906;2023-02-13T08:28:30;187.02;;;52.85;;
33367;SDS011;19724;51.114;13.906;2023-02-13T08:30:55;142.55;;;51.85;;
33367;SDS011;19724;51.114;13.906;2023-02-13T08:33:21;152.38;;;51.80;;
33367;SDS011;19724;51.114;13.906;2023-02-13T08:35:46;148.70;;;50.50;;
33367;SDS011;19724;51.114;13.906;2023-02-13T08:38:12;142.38;;;49.88;;
33367;SDS011;19724;51.114;13.906;2023-02-13T08:40:37;184.40;;;51.75;;
33367;SDS011;19724;51.114;13.906;2023-02-13T08:43:04;180.10;;;51.40;;
33367;SDS011;19724;51.114;13.906;2023-02-13T08:45:30;142.82;;;49.65;;
33367;SDS011;19724;51.114;13.906;2023-02-13T08:47:57;157.50;;;52.03;;
33367;SDS011;19724;51.114;13.906;2023-02-13T08:50:23;165.43;;;51.00;;
33367;SDS011;19724;51.114;13.906;2023-02-13T08:52:49;149.93;;;49.33;;
33367;SDS011;19724;51.114;13.906;2023-02-13T08:55:14;155.05;;;48.25;;
33367;SDS011;19724;51.114;13.906;2023-02-13T08:57:40;178.38;;;52.75;;
33367;SDS011;19724;51.114;13.906;2023-02-13T09:00:06;141.68;;;46.65;;
33367;SDS011;19724;51.114;13.906;2023-02-13T09:02:32;170.45;;;46.85;;
33367;SDS011;19724;51.114;13.906;2023-02-13T09:04:57;145.70;;;46.05;;
33367;SDS011;19724;51.114;13.906;2023-02-13T09:07:23;166.45;;;49.00;;
33367;SDS011;19724;51.114;13.906;2023-02-13T09:09:49;138.30;;;44.65;;
33367;SDS011;19724;51.114;13.906;2023-02-13T09:12:14;164.90;;;43.55;;
33367;SDS011;19724;51.114;13.906;2023-02-13T09:14:40;121.35;;;44.28;;
33367;SDS011;19724;51.114;13.906;2023-02-13T09:17:05;112.20;;;42.17;;
33367;SDS011;19724;51.114;13.906;2023-02-13T09:19:31;114.28;;;42.17;;
33367;SDS011;19724;51.114;13.906;2023-02-13T09:21:56;112.38;;;37.20;;
33367;SDS011;19724;51.114;13.906;2023-02-13T09:24:22;98.78;;;40.33;;
33367;SDS011;19724;51.114;13.906;2023-02-13T09:26:48;108.63;;;39.40;;
33367;SDS011;19724;51.114;13.906;2023-02-13T09:29:14;112.32;;;40.53;;
33367;SDS011;19724;51.114;13.906;2023-02-13T09:31:39;98.03;;;37.90;;
33367;SDS011;19724;51.114;13.906;2023-02-13T09:34:05;111.40;;;41.00;;
33367;SDS011;19724;51.114;13.906;2023-02-13T09:36:30;93.45;;;39.30;;
33367;SDS011;19724;51.114;13.906;2023-02-13T09:38:57;97.45;;;39.05;;
33367;SDS011;19724;51.114;13.906;2023-02-13T09:41:34;111.88;;;42.58;;
33367;SDS011;19724;51.114;13.906;2023-02-13T09:44:18;90.47;;;38.22;;
33367;SDS011;19724;51.114;13.906;2023-02-13T09:49:47;127.50;;;41.95;;
33367;SDS011;19724;51.114;13.906;2023-02-13T09:52:16;97.53;;;40.47;;
33367;SDS011;19724;51.114;13.906;2023-02-13T09:54:42;117.07;;;40.20;;
33367;SDS011;19724;51.114;13.906;2023-02-13T10:00:24;109.25;;;42.88;;
33367;SDS011;19724;51.114;13.906;2023-02-13T10:08:28;87.47;;;38.85;;
33367;SDS011;19724;51.114;13.906;2023-02-13T10:10:56;67.25;;;31.70;;
33367;SDS011;19724;51.114;13.906;2023-02-13T10:16:22;69.72;;;33.58;;
33367;SDS011;19724;51.114;13.906;2023-02-13T10:18:59;67.60;;;30.65;;
33367;SDS011;19724;51.114;13.906;2023-02-13T10:21:40;55.78;;;27.27;;
33367;SDS011;19724;51.114;13.906;2023-02-13T10:24:18;73.47;;;33.42;;
33367;SDS011;19724;51.114;13.906;2023-02-13T10:26:52;70.65;;;29.17;;
33367;SDS011;19724;51.114;13.906;2023-02-13T10:29:21;61.65;;;30.27;;
33367;SDS011;19724;51.114;13.906;2023-02-13T10:32:14;54.17;;;29.75;;
33367;SDS011;19724;51.114;13.906;2023-02-13T10:34:44;57.33;;;29.48;;
33367;SDS011;19724;51.114;13.906;2023-02-13T10:37:15;52.33;;;26.83;;
33367;SDS011;19724;51.114;13.906;2023-02-13T10:39:43;58.80;;;27.88;;
33367;SDS011;19724;51.114;13.906;2023-02-13T10:42:22;51.33;;;26.65;;
33367;SDS011;19724;51.114;13.906;2023-02-13T10:50:40;41.20;;;22.77;;
33367;SDS011;19724;51.114;13.906;2023-02-13T10:53:22;42.25;;;23.33;;
33367;SDS011;19724;51.114;13.906;2023-02-13T11:01:20;28.63;;;17.75;;
33367;SDS011;19724;51.114;13.906;2023-02-13T11:04:10;28.90;;;18.45;;
33367;SDS011;19724;51.114;13.906;2023-02-13T11:06:40;31.48;;;18.90;;
33367;SDS011;19724;51.114;13.906;2023-02-13T11:09:10;29.95;;;17.88;;
33367;SDS011;19724;51.114;13.906;2023-02-13T11:11:38;29.52;;;17.70;;
33367;SDS011;19724;51.114;13.906;2023-02-13T11:14:07;26.08;;;16.75;;
33367;SDS011;19724;51.114;13.906;2023-02-13T11:16:38;35.17;;;17.42;;
33367;SDS011;19724;51.114;13.906;2023-02-13T11:22:04;27.38;;;15.75;;
33367;SDS011;19724;51.114;13.906;2023-02-13T11:24:36;23.85;;;15.10;;
33367;SDS011;19724;51.114;13.906;2023-02-13T11:27:06;25.48;;;15.38;;
33367;SDS011;19724;51.114;13.906;2023-02-13T11:29:37;25.10;;;16.08;;
33367;SDS011;19724;51.114;13.906;2023-02-13T11:32:18;24.25;;;15.93;;
33367;SDS011;19724;51.114;13.906;2023-02-13T11:34:46;28.10;;;16.80;;
33367;SDS011;19724;51.114;13.906;2023-02-13T11:37:17;22.63;;;14.57;;
33367;SDS011;19724;51.114;13.906;2023-02-13T11:39:47;20.55;;;14.10;;
33367;SDS011;19724;51.114;13.906;2023-02-13T11:42:35;20.40;;;13.23;;
33367;SDS011;19724;51.114;13.906;2023-02-13T11:45:03;24.15;;;15.77;;
33367;SDS011;19724;51.114;13.906;2023-02-13T11:47:47;23.67;;;16.33;;
33367;SDS011;19724;51.114;13.906;2023-02-13T11:50:31;26.05;;;16.33;;
33367;SDS011;19724;51.114;13.906;2023-02-13T11:53:08;27.67;;;16.90;;
33367;SDS011;19724;51.114;13.906;2023-02-13T11:55:58;30.48;;;17.80;;
33367;SDS011;19724;51.114;13.906;2023-02-13T11:58:27;27.52;;;16.80;;
33367;SDS011;19724;51.114;13.906;2023-02-13T12:01:07;28.88;;;17.00;;
33367;SDS011;19724;51.114;13.906;2023-02-13T12:03:55;30.58;;;17.55;;
33367;SDS011;19724;51.114;13.906;2023-02-13T12:06:25;23.88;;;15.18;;
33367;SDS011;19724;51.114;13.906;2023-02-13T12:08:51;28.60;;;16.73;;
33367;SDS011;19724;51.114;13.906;2023-02-13T12:11:21;27.95;;;17.88;;
33367;SDS011;19724;51.114;13.906;2023-02-13T12:13:58;26.88;;;16.35;;
33367;SDS011;19724;51.114;13.906;2023-02-13T12:16:32;26.73;;;17.17;;
33367;SDS011;19724;51.114;13.906;2023-02-13T12:19:04;28.38;;;18.75;;
33367;SDS011;19724;51.114;13.906;2023-02-13T12:24:41;22.17;;;15.68;;
33367;SDS011;19724;51.114;13.906;2023-02-13T12:27:22;23.58;;;15.93;;
33367;SDS011;19724;51.114;13.906;2023-02-13T12:33:12;22.02;;;15.60;;
33367;SDS011;19724;51.114;13.906;2023-02-13T12:35:55;19.48;;;14.00;;
33367;SDS011;19724;51.114;13.906;2023-02-13T12:44:27;18.85;;;14.02;;
33367;SDS011;19724;51.114;13.906;2023-02-13T12:58:28;19.02;;;14.02;;
33367;SDS011;19724;51.114;13.906;2023-02-13T13:01:36;18.25;;;12.60;;
33367;SDS011;19724;51.114;13.906;2023-02-13T13:04:25;18.13;;;13.10;;
33367;SDS011;19724;51.114;13.906;2023-02-13T13:13:01;18.55;;;13.57;;
33367;SDS011;19724;51.114;13.906;2023-02-13T13:15:51;20.25;;;13.45;;
33367;SDS011;19724;51.114;13.906;2023-02-13T13:21:27;17.77;;;12.55;;
33367;SDS011;19724;51.114;13.906;2023-02-13T13:24:23;16.55;;;12.45;;
33367;SDS011;19724;51.114;13.906;2023-02-13T13:26:57;16.40;;;12.32;;
33367;SDS011;19724;51.114;13.906;2023-02-13T13:29:31;16.50;;;12.10;;
33367;SDS011;19724;51.114;13.906;2023-02-13T13:32:07;16.92;;;11.60;;
33367;SDS011;19724;51.114;13.906;2023-02-13T13:34:40;15.70;;;12.13;;
33367;SDS011;19724;51.114;13.906;2023-02-13T13:37:06;18.13;;;11.63;;
33367;SDS011;19724;51.114;13.906;2023-02-13T13:42:52;17.20;;;11.68;;
33367;SDS011;19724;51.114;13.906;2023-02-13T13:48:38;14.30;;;10.95;;
33367;SDS011;19724;51.114;13.906;2023-02-13T13:51:23;17.15;;;11.23;;
33367;SDS011;19724;51.114;13.906;2023-02-13T13:54:16;17.23;;;10.80;;
33367;SDS011;19724;51.114;13.906;2023-02-13T13:59:19;16.65;;;10.75;;
33367;SDS011;19724;51.114;13.906;2023-02-13T14:04:59;16.15;;;9.93;;
33367;SDS011;19724;51.114;13.906;2023-02-13T14:07:43;13.68;;;10.00;;
33367;SDS011;19724;51.114;13.906;2023-02-13T14:20:36;15.48;;;11.43;;
33367;SDS011;19724;51.114;13.906;2023-02-13T14:23:22;15.52;;;11.65;;
33367;SDS011;19724;51.114;13.906;2023-02-13T14:28:39;15.48;;;11.73;;
33367;SDS011;19724;51.114;13.906;2023-02-13T14:31:17;14.95;;;11.52;;
33367;SDS011;19724;51.114;13.906;2023-02-13T14:33:55;14.27;;;10.35;;
33367;SDS011;19724;51.114;13.906;2023-02-13T14:36:32;14.75;;;11.25;;
33367;SDS011;19724;51.114;13.906;2023-02-13T14:39:00;14.07;;;11.18;;
33367;SDS011;19724;51.114;13.906;2023-02-13T14:44:36;15.60;;;12.32;;
33367;SDS011;19724;51.114;13.906;2023-02-13T14:47:20;15.18;;;10.93;;
33367;SDS011;19724;51.114;13.906;2023-02-13T14:49:49;19.98;;;13.02;;
33367;SDS011;19724;51.114;13.906;2023-02-13T14:52:17;19.08;;;13.43;;
33367;SDS011;19724;51.114;13.906;2023-02-13T14:54:51;20.63;;;15.30;;
33367;SDS011;19724;51.114;13.906;2023-02-13T14:57:41;18.38;;;13.07;;
33367;SDS011;19724;51.114;13.906;2023-02-13T15:02:48;16.10;;;12.55;;
33367;SDS011;19724;51.114;13.906;2023-02-13T15:05:18;19.23;;;13.52;;
33367;SDS011;19724;51.114;13.906;2023-02-13T15:07:48;17.60;;;12.75;;
33367;SDS011;19724;51.114;13.906;2023-02-13T15:13:12;21.33;;;14.30;;
33367;SDS011;19724;51.114;13.906;2023-02-13T15:15:46;18.80;;;13.50;;
33367;SDS011;19724;51.114;13.906;2023-02-13T15:18:24;21.00;;;14.23;;
33367;SDS011;19724;51.114;13.906;2023-02-13T15:20:52;25.65;;;17.70;;
33367;SDS011;19724;51.114;13.906;2023-02-13T15:23:22;24.23;;;17.08;;
33367;SDS011;19724;51.114;13.906;2023-02-13T15:25:55;25.38;;;19.23;;
33367;SDS011;19724;51.114;13.906;2023-02-13T15:28:23;24.27;;;16.65;;
33367;SDS011;19724;51.114;13.906;2023-02-13T15:30:56;23.15;;;16.85;;
33367;SDS011;19724;51.114;13.906;2023-02-13T15:33:31;22.45;;;15.35;;
33367;SDS011;19724;51.114;13.906;2023-02-13T15:36:12;23.33;;;15.82;;
33367;SDS011;19724;51.114;13.906;2023-02-13T15:38:44;21.23;;;15.70;;
33367;SDS011;19724;51.114;13.906;2023-02-13T15:41:11;20.63;;;14.73;;
33367;SDS011;19724;51.114;13.906;2023-02-13T15:43:43;24.20;;;17.48;;
33367;SDS011;19724;51.114;13.906;2023-02-13T15:46:22;24.70;;;15.68;;
33367;SDS011;19724;51.114;13.906;2023-02-13T15:48:57;23.27;;;15.02;;
33367;SDS011;19724;51.114;13.906;2023-02-13T15:51:35;20.33;;;15.70;;
33367;SDS011;19724;51.114;13.906;2023-02-13T15:54:02;25.52;;;16.95;;
33367;SDS011;19724;51.114;13.906;2023-02-13T15:56:30;25.15;;;16.80;;
33367;SDS011;19724;51.114;13.906;2023-02-13T15:58:57;23.83;;;15.35;;
33367;SDS011;19724;51.114;13.906;2023-02-13T16:01:24;26.55;;;16.60;;
33367;SDS011;19724;51.114;13.906;2023-02-13T16:03:53;25.63;;;17.30;;
33367;SDS011;19724;51.114;13.906;2023-02-13T16:06:23;25.15;;;16.30;;
33367;SDS011;19724;51.114;13.906;2023-02-13T16:08:50;22.08;;;16.65;;
33367;SDS011;19724;51.114;13.906;2023-02-13T16:11:25;22.88;;;16.38;;
33367;SDS011;19724;51.114;13.906;2023-02-13T16:13:56;23.10;;;16.95;;
33367;SDS011;19724;51.114;13.906;2023-02-13T16:16:30;25.80;;;17.15;;
33367;SDS011;19724;51.114;13.906;2023-02-13T16:18:58;23.45;;;16.25;;
33367;SDS011;19724;51.114;13.906;2023-02-13T16:21:25;26.67;;;18.42;;
33367;SDS011;19724;51.114;13.906;2023-02-13T16:23:59;23.85;;;17.42;;
33367;SDS011;19724;51.114;13.906;2023-02-13T16:26:30;27.85;;;16.92;;
33367;SDS011;19724;51.114;13.906;2023-02-13T16:28:59;28.65;;;18.58;;
33367;SDS011;19724;51.114;13.906;2023-02-13T16:31:25;24.42;;;17.05;;